createdAt,value
2023-04-20T00:00:47.681Z,100561.09
2023-04-20T00:03:14.639Z,100560.14
2023-04-20T00:05:41.356Z,100559.54
2023-04-20T00:08:08.170Z,100559.34
2023-04-20T00:10:34.718Z,100556.60
2023-04-20T00:13:01.224Z,100555.27
2023-04-20T00:15:27.838Z,100554.20
2023-04-20T00:17:54.419Z,100555.09
2023-04-20T00:20:21.022Z,100556.31
2023-04-20T00:22:47.688Z,100555.83
2023-04-20T00:25:14.310Z,100554.70
2023-04-20T00:27:40.907Z,100557.26
2023-04-20T00:30:08.342Z,100557.23
2023-04-20T00:32:36.117Z,100558.11
2023-04-20T00:35:02.847Z,100555.70
2023-04-20T00:37:29.725Z,100554.60
2023-04-20T00:39:57.656Z,100553.60
2023-04-20T00:42:24.633Z,100555.86
2023-04-20T00:44:51.561Z,100556.05
2023-04-20T00:47:18.154Z,100557.38
2023-04-20T00:49:45.006Z,100559.48
2023-04-20T00:52:11.760Z,100556.83
2023-04-20T00:54:39.011Z,100556.95
2023-04-20T00:57:05.804Z,100557.85
2023-04-20T00:59:34.616Z,100556.99
2023-04-20T01:02:01.359Z,100554.09
2023-04-20T01:04:29.347Z,100548.05
2023-04-20T01:06:58.388Z,100549.87
2023-04-20T01:09:24.892Z,100549.46
2023-04-20T01:11:51.419Z,100554.34
2023-04-20T01:14:18.042Z,100556.70
2023-04-20T01:16:44.964Z,100555.69
2023-04-20T01:19:12.610Z,100550.42
2023-04-20T01:21:39.135Z,100552.10
2023-04-20T01:24:06.406Z,100554.45
2023-04-20T01:26:32.985Z,100556.15
2023-04-20T01:28:59.619Z,100553.73
2023-04-20T01:31:26.438Z,100550.03
2023-04-20T01:33:52.972Z,100547.88
2023-04-20T01:36:21.425Z,100547.86
2023-04-20T01:38:48.642Z,100547.68
2023-04-20T01:41:15.771Z,100546.71
2023-04-20T01:43:42.554Z,100545.58
2023-04-20T01:46:11.717Z,100546.33
2023-04-20T01:48:39.692Z,100543.63
2023-04-20T01:51:06.313Z,100543.36
2023-04-20T01:53:32.804Z,100543.39
2023-04-20T01:55:59.483Z,100543.30
2023-04-20T01:58:26.081Z,100543.71
2023-04-20T02:00:52.817Z,100539.83
2023-04-20T02:03:19.594Z,100542.85
2023-04-20T02:05:47.002Z,100544.43
2023-04-20T02:08:13.712Z,100542.79
2023-04-20T02:10:40.374Z,100544.41
2023-04-20T02:13:08.979Z,100543.95
2023-04-20T02:19:01.623Z,100539.52
2023-04-20T02:21:28.285Z,100539.10
2023-04-20T02:23:54.894Z,100540.73
2023-04-20T02:26:21.465Z,100542.77
2023-04-20T02:28:48.000Z,100540.19
2023-04-20T02:31:14.561Z,100545.39
2023-04-20T02:33:50.016Z,100546.29
2023-04-20T02:36:29.813Z,100548.25
2023-04-20T02:38:56.454Z,100545.16
2023-04-20T02:41:23.131Z,100543.87
2023-04-20T02:43:49.740Z,100548.21
2023-04-20T02:46:17.391Z,100547.86
2023-04-20T02:48:44.101Z,100548.56
2023-04-20T02:51:11.075Z,100549.56
2023-04-20T02:53:42.385Z,100549.32
2023-04-20T02:56:16.746Z,100550.92
2023-04-20T02:58:48.320Z,100550.90
2023-04-20T03:01:24.165Z,100546.89
2023-04-20T03:03:57.865Z,100545.09
2023-04-20T03:06:24.757Z,100547.46
2023-04-20T03:08:54.066Z,100549.74
2023-04-20T03:11:39.229Z,100549.38
2023-04-20T03:14:06.248Z,100549.08
2023-04-20T03:16:33.350Z,100549.17
2023-04-20T03:19:00.020Z,100552.01
2023-04-20T03:21:26.650Z,100553.61
2023-04-20T03:23:53.753Z,100553.98
2023-04-20T03:26:20.462Z,100553.76
2023-04-20T03:29:05.937Z,100560.29
2023-04-20T03:31:32.661Z,100561.34
2023-04-20T03:33:59.569Z,100559.58
2023-04-20T03:36:28.358Z,100562.05
2023-04-20T03:38:56.465Z,100561.91
2023-04-20T03:41:23.173Z,100563.09
2023-04-20T03:43:49.803Z,100565.50
2023-04-20T03:46:16.492Z,100569.27
2023-04-20T03:48:44.397Z,100567.65
2023-04-20T03:51:10.915Z,100569.29
2023-04-20T03:53:39.587Z,100568.86
2023-04-20T03:56:07.682Z,100571.58
2023-04-20T03:58:34.326Z,100574.22
2023-04-20T04:01:10.530Z,100573.89
2023-04-20T04:03:39.137Z,100575.43
2023-04-20T04:06:07.073Z,100577.04
2023-04-20T04:08:33.724Z,100576.11
2023-04-20T04:11:00.834Z,100572.73
2023-04-20T04:13:27.446Z,100567.83
2023-04-20T04:15:54.028Z,100567.41
2023-04-20T04:18:22.913Z,100573.71
2023-04-20T04:20:49.879Z,100580.57
2023-04-20T04:23:16.494Z,100582.81
2023-04-20T04:25:47.292Z,100581.71
2023-04-20T04:28:14.933Z,100583.84
2023-04-20T04:30:48.416Z,100587.84
2023-04-20T04:33:15.067Z,100590.13
2023-04-20T04:35:43.969Z,100590.47
2023-04-20T04:38:13.103Z,100588.08
2023-04-20T04:40:41.902Z,100589.11
2023-04-20T04:43:10.127Z,100592.23
2023-04-20T04:45:43.431Z,100600.48
2023-04-20T04:48:12.532Z,100602.13
2023-04-20T04:50:39.738Z,100605.47
2023-04-20T04:53:06.867Z,100606.30
2023-04-20T04:55:33.832Z,100609.18
2023-04-20T04:58:01.764Z,100611.92
2023-04-20T05:00:29.273Z,100615.66
2023-04-20T05:02:56.067Z,100616.94
2023-04-20T05:05:23.180Z,100619.52
2023-04-20T05:07:49.689Z,100617.42
2023-04-20T05:10:16.474Z,100616.39
2023-04-20T05:12:43.112Z,100618.87
2023-04-20T05:15:10.009Z,100622.93
2023-04-20T05:17:36.642Z,100621.84
2023-04-20T05:20:06.340Z,100627.49
2023-04-20T05:22:33.062Z,100629.52
2023-04-20T05:24:59.614Z,100629.27
2023-04-20T05:27:26.104Z,100628.33
2023-04-20T05:29:52.636Z,100628.51
2023-04-20T05:32:19.248Z,100628.52
2023-04-20T05:34:45.987Z,100632.36
2023-04-20T05:37:13.365Z,100633.90
2023-04-20T05:39:40.362Z,100636.89
2023-04-20T05:42:06.950Z,100636.20
2023-04-20T05:44:34.110Z,100640.29
2023-04-20T05:47:00.645Z,100639.45
2023-04-20T05:49:27.171Z,100636.19
2023-04-20T05:51:53.749Z,100641.75
2023-04-20T05:54:20.441Z,100639.63
2023-04-20T05:56:46.950Z,100640.03
2023-04-20T05:59:13.604Z,100647.09
2023-04-20T06:01:40.246Z,100647.86
2023-04-20T06:04:07.102Z,100646.45
2023-04-20T06:06:34.100Z,100647.20
2023-04-20T06:09:00.974Z,100649.55
2023-04-20T06:11:27.563Z,100653.98
2023-04-20T06:13:54.300Z,100651.92
2023-04-20T06:16:21.124Z,100653.68
2023-04-20T06:18:47.839Z,100653.27
2023-04-20T06:21:16.174Z,100654.40
2023-04-20T06:23:44.320Z,100649.77
2023-04-20T06:26:11.528Z,100651.64
2023-04-20T06:28:38.678Z,100652.77
2023-04-20T06:31:06.085Z,100656.77
2023-04-20T06:33:32.801Z,100660.00
2023-04-20T06:35:59.630Z,100655.81
2023-04-20T06:38:26.399Z,100655.52
2023-04-20T06:40:53.012Z,100658.08
2023-04-20T06:43:19.641Z,100656.42
2023-04-20T06:45:46.698Z,100659.77
2023-04-20T06:48:30.128Z,100657.77
2023-04-20T06:50:58.428Z,100659.81
2023-04-20T06:53:25.167Z,100660.52
2023-04-20T06:55:54.839Z,100660.50
2023-04-20T06:58:21.708Z,100663.71
2023-04-20T07:00:48.262Z,100660.44
2023-04-20T07:03:14.923Z,100660.72
2023-04-20T07:05:41.694Z,100665.42
2023-04-20T07:08:09.460Z,100666.17
2023-04-20T07:10:36.182Z,100661.64
2023-04-20T07:13:02.755Z,100657.61
2023-04-20T07:15:29.330Z,100663.38
2023-04-20T07:17:55.986Z,100659.54
2023-04-20T07:20:22.654Z,100665.27
2023-04-20T07:22:49.287Z,100667.70
2023-04-20T07:25:17.773Z,100668.87
2023-04-20T07:27:44.456Z,100664.89
2023-04-20T07:30:12.115Z,100662.91
2023-04-20T07:32:40.221Z,100667.82
2023-04-20T07:35:07.772Z,100668.77
2023-04-20T07:37:34.434Z,100665.42
2023-04-20T07:40:01.178Z,100663.80
2023-04-20T07:42:29.852Z,100664.35
2023-04-20T07:44:56.620Z,100673.95
2023-04-20T07:47:23.272Z,100677.45
2023-04-20T07:49:50.308Z,100677.08
2023-04-20T07:52:18.289Z,100677.29
2023-04-20T07:54:45.752Z,100675.38
2023-04-20T07:57:12.668Z,100675.24
2023-04-20T07:59:40.877Z,100676.73
2023-04-20T08:02:08.568Z,100681.58
2023-04-20T08:04:39.254Z,100682.29
2023-04-20T08:07:06.175Z,100681.85
2023-04-20T08:09:33.220Z,100678.33
2023-04-20T08:12:00.654Z,100683.81
2023-04-20T08:14:27.652Z,100680.02
2023-04-20T08:16:54.361Z,100682.17
2023-04-20T08:19:21.244Z,100682.02
2023-04-20T08:21:47.796Z,100685.41
2023-04-20T08:24:14.487Z,100680.57
2023-04-20T08:26:43.452Z,100679.28
2023-04-20T08:29:10.554Z,100682.84
2023-04-20T08:31:37.293Z,100687.81
2023-04-20T08:34:04.428Z,100687.23
2023-04-20T08:36:32.265Z,100687.07
2023-04-20T08:39:13.941Z,100677.76
2023-04-20T08:41:41.447Z,100689.29
2023-04-20T08:44:08.569Z,100689.21
2023-04-20T08:46:37.705Z,100682.91
2023-04-20T08:49:04.410Z,100685.81
2023-04-20T08:51:32.682Z,100684.92
2023-04-20T08:54:05.546Z,100685.17
2023-04-20T08:56:44.134Z,100689.70
2023-04-20T08:59:12.898Z,100685.73
2023-04-20T09:01:41.729Z,100679.83
2023-04-20T09:04:29.614Z,100681.13
2023-04-20T09:06:56.719Z,100677.64
2023-04-20T09:09:25.694Z,100668.70
2023-04-20T09:12:07.218Z,100671.69
2023-04-20T09:14:45.206Z,100660.33
2023-04-20T09:17:14.323Z,100663.14
2023-04-20T09:19:41.587Z,100666.48
2023-04-20T09:22:08.169Z,100665.09
2023-04-20T09:24:36.737Z,100664.96
2023-04-20T09:27:16.909Z,100670.93
2023-04-20T09:29:44.233Z,100667.75
2023-04-20T09:32:24.112Z,100666.73
2023-04-20T09:34:51.262Z,100667.61
2023-04-20T09:37:18.004Z,100669.08
2023-04-20T09:39:46.022Z,100667.39
2023-04-20T09:42:14.521Z,100662.70
2023-04-20T09:44:41.563Z,100668.00
2023-04-20T09:47:08.884Z,100668.55
2023-04-20T09:49:41.276Z,100670.02
2023-04-20T09:52:08.498Z,100667.13
2023-04-20T09:54:37.347Z,100669.40
2023-04-20T09:57:05.945Z,100669.45
2023-04-20T09:59:33.454Z,100667.60
2023-04-20T10:02:00.224Z,100660.64
2023-04-20T10:04:27.117Z,100668.84
2023-04-20T10:06:55.713Z,100661.27
2023-04-20T10:09:28.677Z,100659.77
2023-04-20T10:12:06.785Z,100663.36
2023-04-20T10:14:33.652Z,100652.84
2023-04-20T10:17:00.595Z,100658.10
2023-04-20T10:19:38.741Z,100662.54
2023-04-20T10:22:06.906Z,100655.98
2023-04-20T10:24:33.663Z,100646.83
2023-04-20T10:27:00.314Z,100652.67
2023-04-20T10:29:28.226Z,100658.54
2023-04-20T10:31:55.969Z,100654.73
2023-04-20T10:34:36.567Z,100648.64
2023-04-20T10:37:12.577Z,100644.37
2023-04-20T10:39:46.692Z,100645.11
2023-04-20T10:42:15.486Z,100639.31
2023-04-20T10:44:48.197Z,100635.70
2023-04-20T10:47:15.546Z,100635.95
2023-04-20T10:49:42.117Z,100642.77
2023-04-20T10:52:08.664Z,100641.83
2023-04-20T10:54:39.723Z,100637.02
2023-04-20T10:57:07.321Z,100636.42
2023-04-20T10:59:41.970Z,100642.35
2023-04-20T11:02:10.829Z,100637.55
2023-04-20T11:04:37.916Z,100637.45
2023-04-20T11:07:07.353Z,100632.37
2023-04-20T11:09:34.564Z,100637.02
2023-04-20T11:12:06.264Z,100639.03
2023-04-20T11:14:35.979Z,100633.22
2023-04-20T11:17:02.737Z,100633.52
2023-04-20T11:19:34.410Z,100628.58
2023-04-20T11:22:02.169Z,100620.48
2023-04-20T11:24:31.783Z,100619.32
2023-04-20T11:26:58.874Z,100614.91
2023-04-20T11:29:30.219Z,100617.01
2023-04-20T11:31:57.759Z,100616.58
2023-04-20T11:34:24.472Z,100611.98
2023-04-20T11:36:52.524Z,100613.97
2023-04-20T11:39:29.704Z,100615.55
2023-04-20T11:41:59.349Z,100615.20
2023-04-20T11:44:29.208Z,100615.91
2023-04-20T11:46:59.841Z,100615.48
2023-04-20T11:49:28.722Z,100616.17
2023-04-20T11:51:55.858Z,100609.20
2023-04-20T11:54:23.814Z,100605.57
2023-04-20T11:56:50.841Z,100599.56
2023-04-20T11:59:20.056Z,100599.06
2023-04-20T12:01:47.871Z,100603.45
2023-04-20T12:04:15.802Z,100600.52
2023-04-20T12:06:42.827Z,100595.17
2023-04-20T12:09:10.645Z,100594.89
2023-04-20T12:11:37.303Z,100599.86
2023-04-20T12:14:04.988Z,100598.89
2023-04-20T12:16:31.802Z,100596.98
2023-04-20T12:18:58.556Z,100594.09
2023-04-20T12:21:25.229Z,100592.71
2023-04-20T12:23:51.993Z,100592.84
2023-04-20T12:26:18.638Z,100587.27
2023-04-20T12:28:45.399Z,100585.47
2023-04-20T12:31:12.406Z,100590.38
2023-04-20T12:33:39.219Z,100587.52
2023-04-20T12:36:06.154Z,100582.81
2023-04-20T12:38:32.840Z,100583.91
2023-04-20T12:40:59.557Z,100584.00
2023-04-20T12:43:26.161Z,100574.04
2023-04-20T12:45:52.794Z,100573.80
2023-04-20T12:48:19.479Z,100578.10
2023-04-20T12:50:46.483Z,100580.55
2023-04-20T12:53:13.324Z,100579.77
2023-04-20T12:55:40.467Z,100570.23
2023-04-20T12:58:07.153Z,100570.46
2023-04-20T13:00:34.438Z,100571.05
2023-04-20T13:03:01.537Z,100567.42
2023-04-20T13:05:29.018Z,100563.36
2023-04-20T13:07:56.520Z,100564.51
2023-04-20T13:10:23.753Z,100559.38
2023-04-20T13:12:52.344Z,100555.55
2023-04-20T13:15:31.892Z,100554.21
2023-04-20T13:18:06.359Z,100552.10
2023-04-20T13:20:33.109Z,100550.20
2023-04-20T13:23:01.275Z,100549.63
2023-04-20T13:25:32.628Z,100547.23
2023-04-20T13:28:00.722Z,100540.23
2023-04-20T13:30:28.550Z,100532.36
2023-04-20T13:32:55.402Z,100543.73
2023-04-20T13:35:22.225Z,100545.56
2023-04-20T13:37:49.045Z,100544.81
2023-04-20T13:40:16.108Z,100551.18
2023-04-20T13:42:44.408Z,100555.29
2023-04-20T13:45:13.484Z,100557.38
2023-04-20T13:47:40.562Z,100554.58
2023-04-20T13:50:08.615Z,100550.48
2023-04-20T13:52:35.684Z,100552.27
2023-04-20T13:55:02.622Z,100551.82
2023-04-20T13:57:33.483Z,100556.21
2023-04-20T14:00:02.553Z,100556.42
2023-04-20T14:02:33.865Z,100553.89
2023-04-20T14:05:04.546Z,100549.20
2023-04-20T14:07:34.412Z,100544.09
2023-04-20T14:10:06.944Z,100551.88
2023-04-20T14:12:36.581Z,100552.92
2023-04-20T14:15:05.483Z,100550.11
2023-04-20T14:17:34.631Z,100542.35
2023-04-20T14:20:04.264Z,100540.98
2023-04-20T14:22:36.553Z,100540.11
2023-04-20T14:25:05.747Z,100539.03
2023-04-20T14:27:34.556Z,100544.73
2023-04-20T14:30:04.722Z,100544.47
2023-04-20T14:32:36.278Z,100544.52
2023-04-20T14:35:06.185Z,100546.04
2023-04-20T14:37:36.502Z,100548.03
2023-04-20T14:40:07.506Z,100542.28
2023-04-20T14:42:38.558Z,100540.63
2023-04-20T14:45:07.788Z,100540.77
2023-04-20T14:47:36.563Z,100536.40
2023-04-20T14:50:05.583Z,100534.52
2023-04-20T14:52:35.578Z,100544.36
2023-04-20T14:55:04.870Z,100544.64
2023-04-20T15:05:02.515Z,100542.01
2023-04-20T15:07:29.890Z,100543.52
2023-04-20T15:09:56.516Z,100544.63
2023-04-20T15:12:23.216Z,100536.24
2023-04-20T15:14:49.814Z,100539.92
2023-04-20T15:17:16.614Z,100544.73
2023-04-20T15:19:46.161Z,100543.84
2023-04-20T15:22:13.620Z,100547.63
2023-04-20T15:24:41.292Z,100546.67
2023-04-20T15:27:08.102Z,100541.84
2023-04-20T15:29:34.738Z,100545.74
2023-04-20T15:32:01.654Z,100547.48
2023-04-20T15:34:29.235Z,100548.84
2023-04-20T15:36:56.367Z,100543.44
2023-04-20T15:39:23.207Z,100545.02
2023-04-20T15:41:49.893Z,100544.45
2023-04-20T15:44:17.106Z,100548.90
2023-04-20T15:46:44.161Z,100546.59
2023-04-20T15:49:10.906Z,100550.13
2023-04-20T15:51:38.624Z,100548.36
2023-04-20T15:54:06.894Z,100540.40
2023-04-20T15:56:33.483Z,100541.57
2023-04-20T15:59:00.284Z,100546.73
2023-04-20T16:01:27.584Z,100545.27
2023-04-20T16:03:54.606Z,100545.19
2023-04-20T16:06:21.837Z,100543.52
2023-04-20T16:08:50.808Z,100540.64
2023-04-20T16:11:17.544Z,100543.00
2023-04-20T16:13:44.503Z,100541.65
2023-04-20T16:16:11.451Z,100544.10
2023-04-20T16:18:38.048Z,100543.84
2023-04-20T16:21:04.672Z,100540.78
2023-04-20T16:23:31.449Z,100547.16
2023-04-20T16:25:58.619Z,100550.37
2023-04-20T16:28:26.459Z,100551.35
2023-04-20T16:30:53.090Z,100548.20
2023-04-20T16:33:20.281Z,100547.45
2023-04-20T16:35:46.899Z,100546.30
2023-04-20T16:38:13.503Z,100549.30
2023-04-20T16:40:40.240Z,100547.20
2023-04-20T16:43:06.845Z,100551.17
2023-04-20T16:45:33.696Z,100552.27
2023-04-20T16:48:00.838Z,100553.48
2023-04-20T16:50:27.922Z,100553.02
2023-04-20T16:52:56.791Z,100557.07
2023-04-20T16:55:24.009Z,100559.75
2023-04-20T16:57:50.640Z,100565.81
2023-04-20T17:00:17.714Z,100565.34
2023-04-20T17:02:44.513Z,100567.24
2023-04-20T17:05:11.316Z,100569.21
2023-04-20T17:07:37.896Z,100572.48
2023-04-20T17:10:06.984Z,100575.75
2023-04-20T17:12:33.642Z,100577.04
2023-04-20T17:15:00.950Z,100579.92
2023-04-20T17:17:28.344Z,100580.31
2023-04-20T17:19:55.289Z,100579.13
2023-04-20T17:22:22.008Z,100584.65
2023-04-20T17:24:48.665Z,100588.36
2023-04-20T17:27:16.088Z,100589.54
2023-04-20T17:29:44.775Z,100588.46
2023-04-20T17:32:12.195Z,100594.34
2023-04-20T17:34:40.185Z,100594.35
2023-04-20T17:37:07.270Z,100595.27
2023-04-20T17:39:34.003Z,100598.65
2023-04-20T17:42:01.456Z,100603.54
2023-04-20T17:44:28.063Z,100600.98
2023-04-20T17:46:54.836Z,100604.25
2023-04-20T17:49:21.505Z,100602.95
2023-04-20T17:51:48.128Z,100604.11
2023-04-20T17:54:15.601Z,100604.85
2023-04-20T17:56:42.386Z,100608.98
2023-04-20T17:59:09.530Z,100608.61
2023-04-20T18:01:36.221Z,100604.75
2023-04-20T18:04:04.068Z,100608.17
2023-04-20T18:06:33.189Z,100611.52
2023-04-20T18:09:01.082Z,100611.85
2023-04-20T18:11:28.128Z,100612.02
2023-04-20T18:13:54.671Z,100611.90
2023-04-20T18:16:21.734Z,100611.63
2023-04-20T18:18:50.471Z,100611.11
2023-04-20T18:21:17.311Z,100613.23
2023-04-20T18:23:43.947Z,100614.00
2023-04-20T18:26:17.155Z,100615.42
2023-04-20T18:28:47.303Z,100618.23
2023-04-20T18:31:14.311Z,100618.60
2023-04-20T18:33:41.030Z,100619.54
2023-04-20T18:36:07.869Z,100617.48
2023-04-20T18:38:35.435Z,100618.77
2023-04-20T18:41:02.358Z,100622.52
2023-04-20T18:43:28.978Z,100622.33
2023-04-20T18:45:55.616Z,100618.90
2023-04-20T18:48:22.153Z,100622.40
2023-04-20T18:50:49.043Z,100623.23
2023-04-20T18:53:15.848Z,100623.87
2023-04-20T18:55:42.486Z,100627.98
2023-04-20T18:58:09.078Z,100631.27
2023-04-20T19:00:35.915Z,100633.12
2023-04-20T19:03:02.840Z,100639.51
2023-04-20T19:05:31.016Z,100639.91
2023-04-20T19:07:57.722Z,100636.25
2023-04-20T19:10:25.780Z,100636.73
2023-04-20T19:12:52.419Z,100642.14
2023-04-20T19:15:25.406Z,100640.91
2023-04-20T19:17:54.571Z,100640.82
2023-04-20T19:20:23.617Z,100641.23
2023-04-20T19:22:50.529Z,100639.84
2023-04-20T19:25:17.185Z,100640.81
2023-04-20T19:27:43.838Z,100642.80
2023-04-20T19:30:10.856Z,100641.70
2023-04-20T19:32:37.711Z,100642.34
2023-04-20T19:35:04.592Z,100645.02
2023-04-20T19:37:31.228Z,100647.70
2023-04-20T19:39:57.813Z,100649.79
2023-04-20T19:42:24.555Z,100648.76
2023-04-20T19:44:51.147Z,100651.97
2023-04-20T19:47:17.762Z,100649.73
2023-04-20T19:49:44.365Z,100647.46
2023-04-20T19:52:11.075Z,100645.97
2023-04-20T19:54:37.702Z,100646.69
2023-04-20T19:57:04.327Z,100646.02
2023-04-20T19:59:32.799Z,100649.48
2023-04-20T20:01:59.756Z,100648.54
2023-04-20T20:04:27.178Z,100649.41
2023-04-20T20:06:54.315Z,100649.89
2023-04-20T20:09:24.067Z,100651.29
2023-04-20T20:11:51.334Z,100652.06
2023-04-20T20:14:18.570Z,100650.27
2023-04-20T20:16:45.409Z,100651.06
2023-04-20T20:19:12.038Z,100652.51
2023-04-20T20:21:38.664Z,100650.05
2023-04-20T20:24:05.556Z,100653.91
2023-04-20T20:26:32.464Z,100653.98
2023-04-20T20:28:59.238Z,100652.16
2023-04-20T20:31:25.917Z,100650.48
2023-04-20T20:33:52.704Z,100655.61
2023-04-20T20:36:19.679Z,100653.86
2023-04-20T20:38:47.316Z,100652.91
2023-04-20T20:41:14.184Z,100653.95
2023-04-20T20:43:43.873Z,100656.69
2023-04-20T20:46:10.980Z,100656.94
2023-04-20T20:48:37.643Z,100656.73
2023-04-20T20:51:04.378Z,100654.60
2023-04-20T20:53:31.184Z,100655.30
2023-04-20T20:55:57.834Z,100654.83
2023-04-20T20:58:24.760Z,100654.83
2023-04-20T21:00:51.442Z,100657.13
2023-04-20T21:03:18.880Z,100657.05
2023-04-20T21:05:46.208Z,100659.80
2023-04-20T21:08:13.142Z,100660.33
2023-04-20T21:10:40.052Z,100659.89
2023-04-20T21:13:07.335Z,100657.70
2023-04-20T21:15:34.343Z,100657.44
2023-04-20T21:18:01.197Z,100657.78
2023-04-20T21:20:27.888Z,100653.70
2023-04-20T21:22:54.640Z,100653.27
2023-04-20T21:25:21.425Z,100653.38
2023-04-20T21:27:48.270Z,100655.02
2023-04-20T21:30:14.971Z,100653.58
2023-04-20T21:32:41.723Z,100653.75
2023-04-20T21:35:08.790Z,100653.27
2023-04-20T21:37:36.093Z,100653.02
2023-04-20T21:40:03.737Z,100653.34
2023-04-20T21:42:30.640Z,100652.34
2023-04-20T21:44:57.327Z,100653.66
2023-04-20T21:47:24.032Z,100650.15
2023-04-20T21:49:50.788Z,100652.87
2023-04-20T21:52:17.548Z,100651.30
2023-04-20T21:54:44.286Z,100648.92
2023-04-20T21:57:10.978Z,100645.81
2023-04-20T21:59:37.692Z,100648.81
2023-04-20T22:02:04.793Z,100646.10
2023-04-20T22:04:32.302Z,100648.23
2023-04-20T22:07:00.621Z,100648.33
2023-04-20T22:09:27.339Z,100646.89
2023-04-20T22:11:54.132Z,100651.07
2023-04-20T22:14:20.902Z,100651.77
2023-04-20T22:16:48.077Z,100652.70
2023-04-20T22:19:14.933Z,100655.45
2023-04-20T22:21:43.104Z,100659.73
2023-04-20T22:24:09.835Z,100657.55
2023-04-20T22:26:36.631Z,100654.08
2023-04-20T22:29:03.325Z,100657.41
2023-04-20T22:31:30.084Z,100656.77
2023-04-20T22:33:56.976Z,100658.13
2023-04-20T22:36:23.583Z,100658.48
2023-04-20T22:38:50.250Z,100656.77
2023-04-20T22:41:17.592Z,100655.26
2023-04-20T22:43:46.825Z,100655.77
2023-04-20T22:46:13.478Z,100656.79
2023-04-20T22:48:41.780Z,100657.33
2023-04-20T22:51:08.380Z,100654.91
2023-04-20T22:53:35.004Z,100651.83
2023-04-20T22:56:07.816Z,100655.75
2023-04-20T22:58:34.472Z,100655.63
2023-04-20T23:01:01.181Z,100658.95
2023-04-20T23:03:28.085Z,100658.73
2023-04-20T23:05:57.473Z,100655.77
2023-04-20T23:08:25.677Z,100653.10
2023-04-20T23:10:55.889Z,100648.80
2023-04-20T23:13:24.833Z,100647.80
2023-04-20T23:15:52.347Z,100648.77
2023-04-20T23:18:19.022Z,100652.07
2023-04-20T23:20:45.990Z,100652.45
2023-04-20T23:23:12.574Z,100651.77
2023-04-20T23:25:39.131Z,100653.82
2023-04-20T23:28:06.087Z,100660.34
2023-04-20T23:30:32.744Z,100659.42
2023-04-20T23:32:59.462Z,100656.10
2023-04-20T23:35:26.085Z,100657.95
2023-04-20T23:37:52.951Z,100659.44
2023-04-20T23:40:19.534Z,100658.42
2023-04-20T23:42:46.084Z,100653.45
2023-04-20T23:45:12.694Z,100655.14
2023-04-20T23:47:39.347Z,100656.02
2023-04-20T23:50:06.752Z,100658.58
2023-04-20T23:52:33.320Z,100658.03
2023-04-20T23:54:59.833Z,100655.53
2023-04-20T23:57:26.452Z,100656.17
2023-04-20T23:59:53.613Z,100656.39
